Time;durP1;ratioP1;P1;durP2;ratioP2;P2;SDS_P1;SDS_P2;PMS_P1;PMS_P2;Temp;Humidity;BMP_temperature;BMP_pressure;BME280_temperature;BME280_humidity;BME280_pressure;Samples;Min_cycle;Max_cycle;Signal;HPM_P1;HPM_P2
2022/10/15 00:02:10;;;;;;;23.97;16.33;;;13.40;99.90;;;;;;5246172;28;20277;-47
2022/10/15 00:04:41;;;;;;;27.07;17.10;;;13.40;99.90;;;;;;5229613;28;20604;-48
2022/10/15 00:07:11;;;;;;;26.33;18.53;;;13.30;99.90;;;;;;5245162;28;20210;-47
2022/10/15 00:09:42;;;;;;;26.30;18.27;;;13.30;99.90;;;;;;5241940;28;20182;-48
2022/10/15 00:12:12;;;;;;;26.53;17.73;;;13.30;99.90;;;;;;5235984;28;20186;-47
2022/10/15 00:14:43;;;;;;;22.87;16.97;;;13.30;99.90;;;;;;5227143;28;20187;-46
2022/10/15 00:17:13;;;;;;;26.07;17.03;;;13.30;99.90;;;;;;5236386;28;20247;-46
2022/10/15 00:19:44;;;;;;;25.77;18.77;;;13.30;99.90;;;;;;5245468;28;20187;-47
2022/10/15 00:22:14;;;;;;;28.07;18.30;;;13.20;99.90;;;;;;5245753;28;20183;-47
2022/10/15 00:24:45;;;;;;;30.77;18.90;;;13.10;99.90;;;;;;5254208;28;20178;-47
2022/10/15 00:27:16;;;;;;;25.47;17.13;;;13.00;99.90;;;;;;5244801;28;20325;-47
2022/10/15 00:29:46;;;;;;;29.23;20.27;;;13.00;99.90;;;;;;5230606;28;20650;-46
2022/10/15 00:32:17;;;;;;;36.77;19.40;;;12.90;99.90;;;;;;5246110;28;20237;-47
2022/10/15 00:34:47;;;;;;;32.50;19.70;;;12.90;99.90;;;;;;5246677;28;20193;-49
2022/10/15 00:37:19;;;;;;;28.07;18.53;;;12.80;99.90;;;;;;5238403;28;20712;-49
2022/10/15 00:39:50;;;;;;;23.83;18.00;;;12.80;99.90;;;;;;5226767;28;20174;-51
2022/10/15 00:42:21;;;;;;;42.80;19.37;;;12.80;99.90;;;;;;5231442;28;20769;-47
2022/10/15 00:44:55;;;;;;;35.40;23.53;;;12.70;99.90;;;;;;5243331;28;20181;-50
2022/10/15 00:47:38;;;;;;;34.77;24.13;;;12.70;99.90;;;;;;5231721;28;20210;-51
2022/10/15 00:50:22;;;;;;;38.73;23.70;;;12.70;99.90;;;;;;5223865;28;20452;-51
2022/10/15 00:53:01;;;;;;;38.20;24.40;;;12.60;99.90;;;;;;5248521;28;20852;-52
2022/10/15 00:55:35;;;;;;;38.37;23.50;;;12.60;99.90;;;;;;5243109;28;20460;-50
2022/10/15 00:58:16;;;;;;;43.07;25.90;;;12.40;99.90;;;;;;5232701;28;20513;-51
2022/10/15 01:00:47;;;;;;;36.60;23.87;;;12.50;99.90;;;;;;5232379;28;20437;-52
2022/10/15 01:03:17;;;;;;;41.03;26.50;;;12.50;99.90;;;;;;5248121;28;20450;-52
2022/10/15 01:05:50;;;;;;;56.33;26.00;;;12.50;99.90;;;;;;5245736;28;20221;-52
2022/10/15 01:08:21;;;;;;;46.77;27.67;;;12.40;99.90;;;;;;5244074;28;20202;-51
2022/10/15 01:10:56;;;;;;;47.40;28.33;;;12.30;99.90;;;;;;5249215;28;20432;-50
2022/10/15 01:13:52;;;;;;;41.80;27.43;;;12.30;99.90;;;;;;5243752;28;20189;-49
2022/10/15 01:17:04;;;;;;;43.03;28.50;;;12.30;99.90;;;;;;5244242;28;20963;-49
2022/10/15 01:19:41;;;;;;;47.87;28.40;;;12.30;99.90;;;;;;5200165;28;20590;-52
2022/10/15 01:22:43;;;;;;;49.67;29.03;;;12.30;99.90;;;;;;5250780;28;20436;-51
2022/10/15 01:25:32;;;;;;;49.47;29.07;;;12.30;99.90;;;;;;5248866;28;20485;-49
2022/10/15 01:28:14;;;;;;;52.80;31.57;;;12.30;99.90;;;;;;5244911;28;20517;-51
2022/10/15 01:30:54;;;;;;;47.20;28.50;;;12.40;99.90;;;;;;5242109;28;20446;-51
2022/10/15 01:34:12;;;;;;;51.23;30.20;;;12.40;99.90;;;;;;5247624;28;20436;-51
2022/10/15 01:36:55;;;;;;;42.23;27.90;;;12.40;99.90;;;;;;5161255;28;20478;-50
2022/10/15 01:39:42;;;;;;;40.80;24.83;;;12.40;99.90;;;;;;5243659;28;20766;-51
2022/10/15 01:42:16;;;;;;;44.73;27.07;;;12.40;99.90;;;;;;5231692;28;20450;-50
2022/10/15 01:44:52;;;;;;;53.00;29.23;;;12.50;99.90;;;;;;5245223;28;20439;-48
2022/10/15 01:47:28;;;;;;;44.80;28.30;;;12.50;99.90;;;;;;5226981;28;20472;-50
2022/10/15 01:50:03;;;;;;;56.50;29.50;;;12.50;99.90;;;;;;5242945;28;20451;-50
2022/10/15 01:52:39;;;;;;;40.93;25.13;;;12.50;99.90;;;;;;5229940;28;20991;-49
2022/10/15 01:55:14;;;;;;;41.73;25.10;;;12.50;99.90;;;;;;5238256;28;20514;-51
2022/10/15 01:57:46;;;;;;;45.80;27.30;;;12.50;99.90;;;;;;5230253;28;20874;-50
2022/10/15 02:00:17;;;;;;;43.73;24.40;;;12.50;99.90;;;;;;5247532;28;20467;-51
2022/10/15 02:02:48;;;;;;;40.17;25.90;;;12.50;99.90;;;;;;5224985;28;20490;-47
2022/10/15 02:05:29;;;;;;;43.63;24.93;;;12.50;99.90;;;;;;5243954;28;20436;-51
2022/10/15 02:08:06;;;;;;;40.57;27.20;;;12.60;99.90;;;;;;5242420;28;20209;-48
2022/10/15 02:10:48;;;;;;;48.33;29.47;;;12.50;99.90;;;;;;5245321;28;20499;-48
2022/10/15 02:13:23;;;;;;;44.70;25.07;;;12.50;99.90;;;;;;5226136;28;20441;-49
2022/10/15 02:16:21;;;;;;;47.67;26.47;;;12.50;99.90;;;;;;5215903;28;20517;-49
2022/10/15 02:19:03;;;;;;;44.97;26.60;;;12.50;99.90;;;;;;5246241;28;20460;-49
2022/10/15 02:21:41;;;;;;;49.10;27.90;;;12.50;99.90;;;;;;5245187;28;20507;-49
2022/10/15 02:24:21;;;;;;;38.93;24.27;;;12.50;99.90;;;;;;5237617;28;20437;-48
2022/10/15 02:26:56;;;;;;;42.00;28.20;;;12.50;99.90;;;;;;5242042;28;20467;-48
2022/10/15 02:29:31;;;;;;;36.77;24.50;;;12.50;99.90;;;;;;5215956;28;20994;-48
2022/10/15 02:32:05;;;;;;;49.70;24.50;;;12.60;99.90;;;;;;5243163;28;20440;-50
2022/10/15 02:34:36;;;;;;;32.50;23.83;;;12.60;99.90;;;;;;5247306;28;20490;-49
2022/10/15 02:37:08;;;;;;;34.83;24.43;;;12.60;99.90;;;;;;5247136;28;20468;-49
2022/10/15 02:39:38;;;;;;;35.13;22.53;;;12.70;99.90;;;;;;5247235;28;20786;-50
2022/10/15 02:42:09;;;;;;;46.10;24.00;;;12.70;99.90;;;;;;5227600;28;20433;-50
2022/10/15 02:44:39;;;;;;;53.50;28.67;;;12.70;99.90;;;;;;5252024;28;20194;-48
2022/10/15 02:47:10;;;;;;;40.77;24.90;;;12.70;99.90;;;;;;5227124;28;20670;-49
2022/10/15 02:49:41;;;;;;;28.37;22.80;;;12.70;99.90;;;;;;5243751;28;20202;-49
2022/10/15 02:52:11;;;;;;;43.20;24.50;;;12.70;99.90;;;;;;5227572;28;20186;-48
2022/10/15 02:54:42;;;;;;;32.73;21.93;;;12.80;99.90;;;;;;5232790;28;20205;-51
2022/10/15 02:57:12;;;;;;;34.03;21.33;;;12.70;99.90;;;;;;5245886;28;20329;-48
2022/10/15 02:59:43;;;;;;;41.37;26.00;;;12.80;99.90;;;;;;5247440;28;20213;-49
2022/10/15 03:02:13;;;;;;;39.57;24.40;;;12.80;99.90;;;;;;5226584;28;20213;-49
2022/10/15 03:04:44;;;;;;;35.83;22.63;;;12.80;99.90;;;;;;5225738;28;20182;-49
2022/10/15 03:07:15;;;;;;;35.63;23.37;;;12.80;99.90;;;;;;5227440;28;20198;-48
2022/10/15 03:09:45;;;;;;;37.93;25.00;;;12.80;99.90;;;;;;5246198;28;20187;-50
2022/10/15 03:12:16;;;;;;;53.23;26.17;;;12.80;99.90;;;;;;5221849;28;20647;-50
2022/10/15 03:14:47;;;;;;;34.60;22.80;;;12.70;99.90;;;;;;5225391;28;20209;-48
2022/10/15 03:17:18;;;;;;;30.73;22.40;;;12.80;99.90;;;;;;5243945;28;20300;-50
2022/10/15 03:19:48;;;;;;;39.67;24.37;;;12.80;99.90;;;;;;5244795;28;20225;-49
2022/10/15 03:22:19;;;;;;;36.17;24.20;;;12.80;99.90;;;;;;5244484;28;20451;-49
2022/10/15 03:24:49;;;;;;;33.47;21.40;;;12.90;99.90;;;;;;5245168;28;20243;-49
2022/10/15 03:27:20;;;;;;;43.67;26.83;;;12.80;99.90;;;;;;5223643;28;20201;-50
2022/10/15 03:29:50;;;;;;;40.47;25.17;;;12.70;99.90;;;;;;5246002;28;20186;-48
2022/10/15 03:32:21;;;;;;;47.33;27.87;;;12.70;99.90;;;;;;5245053;28;20186;-47
2022/10/15 03:34:51;;;;;;;38.13;26.73;;;12.70;99.90;;;;;;5209785;28;20222;-49
2022/10/15 03:37:22;;;;;;;40.20;24.30;;;12.60;99.90;;;;;;5244792;28;20910;-47
2022/10/15 03:39:53;;;;;;;40.73;23.00;;;12.50;99.90;;;;;;5228806;28;20526;-48
2022/10/15 03:42:23;;;;;;;48.57;26.60;;;12.50;99.90;;;;;;5238454;28;20179;-49
2022/10/15 03:44:54;;;;;;;35.30;25.43;;;12.40;99.90;;;;;;5225851;28;20183;-47
2022/10/15 03:47:24;;;;;;;44.60;25.27;;;12.40;99.90;;;;;;5239727;28;20199;-45
2022/10/15 03:49:55;;;;;;;48.23;26.87;;;12.40;99.90;;;;;;5248920;28;20186;-45
2022/10/15 03:52:25;;;;;;;35.50;24.23;;;12.50;99.90;;;;;;5227156;28;20189;-46
2022/10/15 03:54:56;;;;;;;50.60;28.27;;;12.60;99.90;;;;;;5228397;28;20186;-45
2022/10/15 03:57:26;;;;;;;42.20;23.40;;;12.70;99.90;;;;;;5225172;28;20606;-49
2022/10/15 03:59:57;;;;;;;39.27;26.03;;;12.60;99.90;;;;;;5242685;28;20182;-44
2022/10/15 04:02:30;;;;;;;38.10;23.63;;;12.60;99.90;;;;;;5241613;28;20194;-51
2022/10/15 04:05:00;;;;;;;49.97;30.00;;;12.50;99.90;;;;;;5242963;28;20193;-45
2022/10/15 04:07:31;;;;;;;39.77;26.47;;;12.50;99.90;;;;;;5246907;28;20452;-45
2022/10/15 04:10:02;;;;;;;47.03;27.07;;;12.50;99.90;;;;;;5229973;28;20231;-53
2022/10/15 04:12:33;;;;;;;39.17;25.23;;;12.50;99.90;;;;;;5246224;28;20182;-45
2022/10/15 04:15:03;;;;;;;56.97;32.57;;;12.60;99.90;;;;;;5245198;28;20513;-52
2022/10/15 04:17:34;;;;;;;48.67;29.07;;;12.50;99.90;;;;;;5224141;28;20198;-45
2022/10/15 04:20:05;;;;;;;36.30;23.97;;;12.70;99.90;;;;;;5242628;28;20440;-48
2022/10/15 04:22:36;;;;;;;39.37;24.00;;;12.70;99.90;;;;;;5244253;28;20182;-46
2022/10/15 04:25:07;;;;;;;49.87;29.00;;;12.70;99.90;;;;;;5239523;28;20460;-47
2022/10/15 04:27:38;;;;;;;53.07;30.33;;;12.70;99.90;;;;;;5249068;28;20460;-45
2022/10/15 04:30:10;;;;;;;41.43;25.13;;;12.60;99.90;;;;;;5248200;28;20428;-45
2022/10/15 04:32:40;;;;;;;42.43;24.97;;;12.70;99.90;;;;;;5228672;28;20237;-46
2022/10/15 04:35:11;;;;;;;37.97;23.07;;;12.70;99.90;;;;;;5251294;28;20482;-46
2022/10/15 04:37:42;;;;;;;33.87;22.40;;;12.70;99.90;;;;;;5249150;28;20205;-45
2022/10/15 04:40:12;;;;;;;41.67;26.43;;;12.70;99.90;;;;;;5246460;28;20436;-45
2022/10/15 04:42:43;;;;;;;35.17;24.27;;;12.70;99.90;;;;;;5234815;28;20171;-47
2022/10/15 04:45:14;;;;;;;38.40;22.90;;;12.90;99.90;;;;;;5248568;28;20235;-46
2022/10/15 04:47:45;;;;;;;36.20;23.70;;;13.00;99.90;;;;;;5247449;28;20614;-46
2022/10/15 04:50:15;;;;;;;34.50;20.77;;;13.20;99.90;;;;;;5247301;28;20665;-45
2022/10/15 04:52:47;;;;;;;29.30;20.07;;;13.00;99.90;;;;;;5243680;28;20591;-45
2022/10/15 04:55:17;;;;;;;31.07;19.87;;;13.00;99.90;;;;;;5245446;28;20179;-45
2022/10/15 04:57:48;;;;;;;31.20;21.10;;;12.90;99.90;;;;;;5250108;28;20460;-46
2022/10/15 05:00:18;;;;;;;28.43;18.50;;;12.90;99.90;;;;;;5246285;28;20186;-45
2022/10/15 05:02:49;;;;;;;30.00;21.03;;;12.80;99.90;;;;;;5224383;28;20190;-45
2022/10/15 05:05:20;;;;;;;35.50;19.30;;;13.00;99.90;;;;;;5246176;28;20619;-45
2022/10/15 05:07:50;;;;;;;31.47;20.77;;;12.90;99.90;;;;;;5226688;28;20199;-45
2022/10/15 05:10:21;;;;;;;24.50;18.10;;;12.90;99.90;;;;;;5244675;28;20173;-46
2022/10/15 05:12:52;;;;;;;29.70;20.33;;;12.90;99.90;;;;;;5254423;28;20194;-46
2022/10/15 05:15:25;;;;;;;23.70;18.03;;;12.80;99.90;;;;;;5226895;28;20221;-46
2022/10/15 05:17:55;;;;;;;24.70;19.20;;;12.90;99.90;;;;;;5248497;28;20289;-45
2022/10/15 05:20:26;;;;;;;30.60;20.10;;;12.90;99.90;;;;;;5246388;28;20504;-46
2022/10/15 05:22:57;;;;;;;33.00;19.07;;;12.80;99.90;;;;;;5232916;28;20187;-45
2022/10/15 05:25:28;;;;;;;23.17;17.67;;;12.80;99.90;;;;;;5230953;28;20940;-46
2022/10/15 05:27:58;;;;;;;24.50;16.83;;;12.80;99.90;;;;;;5256213;28;20206;-49
2022/10/15 05:30:29;;;;;;;33.93;20.10;;;12.80;99.90;;;;;;5254504;28;20183;-45
2022/10/15 05:32:59;;;;;;;23.87;16.70;;;12.90;99.90;;;;;;5236183;28;20255;-45
2022/10/15 05:35:30;;;;;;;25.70;18.97;;;12.80;99.90;;;;;;5211758;28;20222;-46
2022/10/15 05:38:00;;;;;;;26.13;17.40;;;13.00;99.90;;;;;;5223969;28;20199;-46
2022/10/15 05:40:31;;;;;;;27.47;16.83;;;13.00;99.90;;;;;;5247752;28;20643;-49
2022/10/15 05:43:02;;;;;;;25.37;17.50;;;13.00;99.90;;;;;;5250492;28;20239;-46
2022/10/15 05:45:32;;;;;;;33.70;17.30;;;12.90;99.90;;;;;;5244960;28;20675;-46
2022/10/15 05:48:03;;;;;;;25.00;17.93;;;13.00;99.90;;;;;;5247371;28;20820;-46
2022/10/15 05:50:34;;;;;;;26.33;16.13;;;13.00;99.90;;;;;;5251952;28;20197;-48
2022/10/15 05:53:05;;;;;;;25.03;15.97;;;12.90;99.90;;;;;;5245777;28;20437;-49
2022/10/15 05:55:36;;;;;;;21.67;15.90;;;12.90;99.90;;;;;;5227968;28;20206;-47
2022/10/15 05:58:06;;;;;;;22.93;16.73;;;12.90;99.90;;;;;;5246450;28;20285;-47
2022/10/15 06:00:38;;;;;;;23.67;15.87;;;13.00;99.90;;;;;;5242235;28;21121;-49
2022/10/15 06:03:15;;;;;;;17.60;13.93;;;13.10;99.90;;;;;;5236156;28;20651;-50
2022/10/15 06:05:46;;;;;;;26.53;17.43;;;13.00;99.90;;;;;;5250049;28;20465;-49
2022/10/15 06:08:16;;;;;;;28.43;16.33;;;13.10;99.90;;;;;;5228092;28;20491;-49
2022/10/15 06:10:48;;;;;;;17.70;14.60;;;13.30;99.90;;;;;;5246735;28;20189;-49
2022/10/15 06:13:20;;;;;;;21.73;15.80;;;13.30;99.90;;;;;;5257438;28;20209;-48
2022/10/15 06:15:51;;;;;;;23.13;15.03;;;13.30;99.90;;;;;;5246378;28;20468;-48
2022/10/15 06:18:21;;;;;;;17.93;14.50;;;13.40;99.90;;;;;;5246637;28;20479;-49
2022/10/15 06:20:52;;;;;;;21.00;15.50;;;13.50;99.90;;;;;;5245424;28;20187;-49
2022/10/15 06:23:23;;;;;;;22.70;14.43;;;13.50;99.90;;;;;;5245015;28;20182;-48
2022/10/15 06:25:53;;;;;;;21.13;13.83;;;13.50;99.90;;;;;;5245639;28;20183;-49
2022/10/15 06:28:24;;;;;;;17.00;13.40;;;13.40;99.90;;;;;;5240579;28;20205;-47
2022/10/15 06:30:57;;;;;;;17.07;13.90;;;13.40;99.90;;;;;;5228067;28;20190;-48
2022/10/15 06:33:28;;;;;;;19.93;13.20;;;13.40;99.90;;;;;;5248015;28;20186;-48
2022/10/15 06:36:04;;;;;;;17.70;12.80;;;13.50;99.90;;;;;;5246459;28;21809;-48
2022/10/15 06:38:36;;;;;;;16.13;13.60;;;13.60;99.90;;;;;;5249461;28;20249;-48
2022/10/15 06:41:07;;;;;;;21.50;14.57;;;13.70;99.90;;;;;;5229605;28;20421;-48
2022/10/15 06:43:37;;;;;;;21.53;13.60;;;13.80;99.90;;;;;;5229822;28;20552;-47
2022/10/15 06:46:08;;;;;;;16.50;13.43;;;13.80;99.90;;;;;;5243737;28;20456;-47
2022/10/15 06:48:39;;;;;;;15.80;12.70;;;14.00;99.90;;;;;;5225781;28;20222;-48
2022/10/15 06:51:10;;;;;;;16.07;11.50;;;14.20;99.90;;;;;;5247964;28;20447;-49
2022/10/15 06:53:42;;;;;;;15.63;12.33;;;14.90;99.90;;;;;;5223848;28;20187;-47
2022/10/15 06:56:13;;;;;;;16.30;12.10;;;15.80;99.90;;;;;;5240294;28;20226;-48
2022/10/15 06:58:43;;;;;;;16.07;11.27;;;17.20;99.90;;;;;;5227756;28;20483;-48
2022/10/15 07:01:14;;;;;;;11.83;9.37;;;18.20;99.90;;;;;;5209897;28;20584;-48
2022/10/15 07:03:51;;;;;;;14.90;10.30;;;19.80;99.90;;;;;;5243560;28;20192;-49
2022/10/15 07:06:22;;;;;;;10.23;9.13;;;21.20;99.90;;;;;;5245139;28;20186;-49
2022/10/15 07:08:52;;;;;;;11.30;9.20;;;21.10;99.90;;;;;;5206304;28;20455;-50
2022/10/15 07:11:23;;;;;;;13.63;9.43;;;20.50;99.90;;;;;;5243439;28;20630;-49
2022/10/15 07:13:56;;;;;;;9.20;7.53;;;20.30;99.90;;;;;;5247217;28;20717;-48
2022/10/15 07:16:26;;;;;;;14.97;9.50;;;19.80;99.90;;;;;;5243162;28;20230;-49
2022/10/15 07:18:57;;;;;;;10.90;8.33;;;19.20;99.90;;;;;;5250748;28;21014;-46
2022/10/15 07:21:28;;;;;;;8.77;7.87;;;18.40;99.90;;;;;;5245451;28;20178;-46
2022/10/15 07:23:59;;;;;;;10.10;8.70;;;17.80;99.90;;;;;;5225546;28;20273;-47
2022/10/15 07:26:30;;;;;;;11.10;9.10;;;17.20;99.90;;;;;;5238834;28;22953;-53
2022/10/15 07:29:01;;;;;;;12.60;8.97;;;16.70;99.90;;;;;;5225835;28;20471;-47
2022/10/15 07:31:32;;;;;;;10.83;8.50;;;16.40;99.90;;;;;;5223080;28;20186;-52
2022/10/15 07:34:02;;;;;;;10.70;9.43;;;16.20;99.90;;;;;;5244068;28;20482;-52
2022/10/15 07:36:33;;;;;;;12.67;9.23;;;16.10;99.90;;;;;;5232010;28;20464;-50
2022/10/15 07:39:04;;;;;;;11.10;9.87;;;16.00;99.90;;;;;;5226810;28;20223;-49
2022/10/15 07:41:35;;;;;;;9.57;8.67;;;16.00;99.90;;;;;;5241875;28;20674;-50
2022/10/15 07:44:05;;;;;;;9.93;8.80;;;16.10;99.90;;;;;;5223947;28;20197;-50
2022/10/15 07:46:36;;;;;;;15.70;10.20;;;16.30;99.90;;;;;;5245148;28;20768;-48
2022/10/15 07:49:08;;;;;;;10.83;8.63;;;16.50;99.90;;;;;;5227163;28;20626;-48
2022/10/15 07:51:38;;;;;;;9.43;8.37;;;16.80;99.90;;;;;;5243305;28;20194;-47
2022/10/15 07:54:09;;;;;;;12.73;8.60;;;17.20;99.90;;;;;;5241744;28;20461;-50
2022/10/15 07:56:39;;;;;;;9.93;9.00;;;17.50;99.90;;;;;;5239634;28;20578;-48
2022/10/15 07:59:10;;;;;;;11.27;9.50;;;17.80;99.90;;;;;;5236299;28;20312;-52
2022/10/15 08:01:40;;;;;;;11.63;8.80;;;17.90;99.90;;;;;;5242286;28;20181;-48
2022/10/15 08:04:11;;;;;;;11.07;9.47;;;18.10;99.90;;;;;;5236955;28;20396;-50
2022/10/15 08:06:42;;;;;;;10.83;8.60;;;18.20;99.90;;;;;;5236870;28;20186;-49
2022/10/15 08:09:12;;;;;;;7.97;7.17;;;18.20;99.90;;;;;;5239439;28;20193;-49
2022/10/15 08:11:43;;;;;;;20.13;8.00;;;18.20;99.90;;;;;;5243153;28;20280;-49
2022/10/15 08:14:13;;;;;;;8.57;7.73;;;18.20;99.90;;;;;;5224614;28;20533;-49
2022/10/15 08:16:44;;;;;;;13.53;8.37;;;18.10;99.90;;;;;;5226276;28;20202;-49
2022/10/15 08:19:16;;;;;;;10.10;7.30;;;18.20;99.90;;;;;;5224920;28;20197;-48
2022/10/15 08:21:47;;;;;;;12.17;8.87;;;18.30;99.90;;;;;;5236993;28;20184;-49
2022/10/15 08:24:17;;;;;;;8.23;7.43;;;18.60;99.90;;;;;;5241156;28;20967;-48
2022/10/15 08:26:48;;;;;;;11.57;8.47;;;18.80;99.90;;;;;;5235004;28;20740;-48
2022/10/15 08:29:18;;;;;;;10.00;7.40;;;19.10;99.90;;;;;;5240694;28;20182;-49
2022/10/15 08:31:50;;;;;;;11.07;8.03;;;19.10;99.90;;;;;;5221657;28;20487;-48
2022/10/15 08:34:20;;;;;;;9.73;7.67;;;19.10;99.90;;;;;;5241419;28;20186;-50
2022/10/15 08:36:51;;;;;;;8.47;7.57;;;19.10;99.90;;;;;;5244958;28;20475;-46
2022/10/15 08:39:22;;;;;;;9.93;7.20;;;19.10;99.90;;;;;;5241236;28;20191;-49
2022/10/15 08:41:56;;;;;;;9.10;6.73;;;19.00;99.90;;;;;;5208822;28;20170;-47
2022/10/15 08:44:29;;;;;;;8.00;7.00;;;19.00;99.90;;;;;;5243117;28;20175;-45
2022/10/15 08:47:09;;;;;;;8.20;7.50;;;19.10;99.90;;;;;;5242055;28;20456;-49
2022/10/15 08:50:03;;;;;;;8.10;7.30;;;19.10;99.90;;;;;;5218353;28;20486;-48
2022/10/15 08:52:45;;;;;;;7.00;6.10;;;19.00;99.90;;;;;;5175631;28;20463;-48
2022/10/15 08:55:19;;;;;;;9.07;7.53;;;18.90;99.90;;;;;;5245499;28;20425;-48
2022/10/15 08:58:12;;;;;;;10.17;8.10;;;18.80;99.90;;;;;;5247182;28;20445;-46
2022/10/15 09:00:49;;;;;;;9.00;7.73;;;18.70;99.90;;;;;;5239864;28;20432;-51
2022/10/15 09:03:51;;;;;;;15.03;8.83;;;18.40;99.90;;;;;;5245723;28;20426;-48
2022/10/15 09:06:33;;;;;;;10.60;8.80;;;18.10;99.90;;;;;;5246708;28;20781;-47
2022/10/15 09:09:18;;;;;;;9.93;8.33;;;18.00;99.90;;;;;;5250538;28;20447;-47
2022/10/15 09:12:13;;;;;;;7.60;6.77;;;17.90;99.90;;;;;;5250000;28;20522;-47
2022/10/15 09:14:46;;;;;;;9.00;7.30;;;18.10;99.90;;;;;;5248941;28;20428;-48
2022/10/15 09:17:25;;;;;;;7.50;6.80;;;18.30;99.90;;;;;;5229317;28;21091;-48
2022/10/15 09:20:01;;;;;;;10.83;7.70;;;18.60;99.90;;;;;;5248124;28;20993;-56
2022/10/15 09:22:34;;;;;;;10.63;7.90;;;18.90;99.90;;;;;;5222356;28;20425;-48
2022/10/15 09:25:18;;;;;;;7.60;6.87;;;19.10;99.90;;;;;;5243499;28;20440;-49
2022/10/15 09:27:50;;;;;;;8.83;6.10;;;19.40;99.90;;;;;;5243489;28;20562;-53
2022/10/15 09:30:39;;;;;;;10.17;8.60;;;19.50;99.90;;;;;;5245809;28;20440;-46
2022/10/15 09:33:43;;;;;;;12.73;9.50;;;19.50;99.90;;;;;;5244374;28;20993;-48
2022/10/15 09:36:55;;;;;;;11.13;7.43;;;19.30;99.90;;;;;;5240844;28;20584;-48
2022/10/15 09:39:52;;;;;;;8.27;7.20;;;19.00;99.90;;;;;;5242239;28;20791;-48
2022/10/15 09:42:40;;;;;;;11.30;7.60;;;19.00;99.90;;;;;;5250017;28;20523;-45
2022/10/15 09:45:14;;;;;;;7.67;6.80;;;18.90;99.90;;;;;;5239779;28;20455;-53
2022/10/15 09:47:45;;;;;;;9.90;8.07;;;18.90;99.90;;;;;;5266610;22;20836;-53
2022/10/15 09:50:16;;;;;;;12.30;8.47;;;19.10;99.90;;;;;;5271903;28;20427;-53
2022/10/15 09:53:16;;;;;;;10.20;7.77;;;19.10;99.90;;;;;;5251172;28;20444;-53
2022/10/15 09:56:06;;;;;;;10.03;6.70;;;19.40;99.90;;;;;;5266540;28;20695;-54
2022/10/15 09:59:14;;;;;;;6.80;6.20;;;19.60;99.90;;;;;;5245764;28;20456;-54
2022/10/15 10:01:59;;;;;;;7.67;6.60;;;19.90;99.90;;;;;;5211621;28;20428;-55
2022/10/15 10:04:33;;;;;;;8.93;7.60;;;20.00;99.90;;;;;;5260818;28;20481;-53
2022/10/15 10:07:06;;;;;;;14.57;8.57;;;19.90;99.90;;;;;;5242320;28;20792;-53
2022/10/15 10:09:54;;;;;;;13.90;7.53;;;19.80;99.90;;;;;;5241319;28;20760;-53
2022/10/15 10:12:32;;;;;;;8.33;6.83;;;19.50;99.90;;;;;;5259838;28;20435;-53
2022/10/15 10:15:20;;;;;;;10.20;7.20;;;19.20;99.90;;;;;;5257800;28;20541;-54
2022/10/15 10:17:53;;;;;;;8.80;7.90;;;19.00;99.90;;;;;;5246538;28;20616;-54
2022/10/15 10:20:26;;;;;;;10.17;8.07;;;19.00;99.90;;;;;;5251103;28;20435;-52
2022/10/15 10:22:59;;;;;;;12.23;7.93;;;18.90;99.90;;;;;;5244464;28;20445;-52
2022/10/15 10:25:43;;;;;;;11.17;8.73;;;19.00;99.90;;;;;;5262059;28;20439;-53
2022/10/15 10:28:20;;;;;;;8.50;6.80;;;18.90;99.90;;;;;;5245404;28;20542;-51
2022/10/15 10:30:56;;;;;;;7.27;6.53;;;18.80;99.90;;;;;;5245593;28;20455;-55
2022/10/15 10:33:30;;;;;;;5.70;5.20;;;18.70;99.90;;;;;;5265041;28;20443;-55
2022/10/15 10:36:02;;;;;;;9.90;6.33;;;18.80;99.90;;;;;;5260578;28;20552;-54
2022/10/15 10:38:35;;;;;;;12.87;8.83;;;19.00;99.90;;;;;;5267828;28;20453;-53
2022/10/15 10:41:08;;;;;;;14.40;9.17;;;19.20;99.90;;;;;;5267391;28;20456;-53
2022/10/15 10:43:51;;;;;;;10.73;7.80;;;19.40;99.90;;;;;;5268262;28;20424;-54
2022/10/15 10:46:23;;;;;;;7.47;6.73;;;19.60;99.90;;;;;;5263250;28;20434;-53
2022/10/15 10:48:53;;;;;;;7.80;6.40;;;19.70;99.90;;;;;;5250131;28;20463;-53
2022/10/15 10:51:26;;;;;;;9.70;5.60;;;19.80;99.90;;;;;;5262360;28;20440;-52
2022/10/15 10:54:04;;;;;;;7.33;6.60;;;19.90;99.90;;;;;;5233376;28;20185;-53
2022/10/15 10:56:39;;;;;;;8.23;6.83;;;19.90;99.90;;;;;;5247933;28;20469;-55
2022/10/15 10:59:18;;;;;;;5.70;5.13;;;19.90;99.90;;;;;;5273549;28;20447;-54
2022/10/15 11:01:50;;;;;;;5.10;4.67;;;20.00;99.90;;;;;;5255716;28;20427;-52
2022/10/15 11:04:32;;;;;;;7.80;6.50;;;20.10;99.90;;;;;;5258728;28;20903;-53
2022/10/15 11:07:07;;;;;;;7.33;6.60;;;20.20;99.90;;;;;;5257675;28;20840;-54
2022/10/15 11:09:46;;;;;;;5.87;5.37;;;20.30;99.90;;;;;;5245478;28;20488;-53
2022/10/15 11:12:19;;;;;;;4.57;4.27;;;20.30;99.90;;;;;;5254043;28;20427;-54
2022/10/15 11:15:08;;;;;;;6.40;5.70;;;20.40;99.90;;;;;;5263527;28;20434;-53
2022/10/15 11:18:15;;;;;;;5.33;4.83;;;20.50;99.90;;;;;;5266508;28;20546;-54
2022/10/15 11:21:03;;;;;;;6.00;5.10;;;20.50;99.90;;;;;;5244973;28;20436;-53
2022/10/15 11:23:54;;;;;;;8.60;4.97;;;20.60;99.90;;;;;;5256313;28;20432;-55
2022/10/15 11:26:49;;;;;;;6.17;5.23;;;20.50;99.90;;;;;;5274189;28;20852;-53
2022/10/15 11:29:30;;;;;;;6.33;5.90;;;20.40;99.90;;;;;;5255857;28;20450;-53
2022/10/15 11:32:48;;;;;;;4.90;4.60;;;20.20;99.90;;;;;;5260612;28;20907;-55
2022/10/15 11:35:19;;;;;;;6.47;5.40;;;20.00;99.90;;;;;;5252223;28;20857;-53
2022/10/15 11:38:21;;;;;;;6.23;5.40;;;20.20;99.90;;;;;;5261465;28;20592;-53
2022/10/15 11:41:00;;;;;;;8.63;4.80;;;20.20;99.90;;;;;;5251158;28;20268;-57
2022/10/15 11:43:58;;;;;;;4.33;4.10;;;20.20;99.90;;;;;;5249387;28;20463;-53
2022/10/15 11:46:46;;;;;;;4.33;3.63;;;20.10;99.90;;;;;;5260300;28;20446;-54
2022/10/15 11:49:38;;;;;;;4.33;4.03;;;20.00;99.90;;;;;;5255335;28;20475;-53
2022/10/15 11:52:24;;;;;;;5.03;4.57;;;20.00;99.90;;;;;;5266799;28;20444;-50
2022/10/15 11:55:22;;;;;;;4.80;4.00;;;20.50;99.90;;;;;;5264084;28;20446;-54
2022/10/15 11:57:59;;;;;;;3.87;3.67;;;20.40;99.90;;;;;;5247343;28;20465;-53
2022/10/15 12:00:38;;;;;;;7.10;5.57;;;20.60;99.90;;;;;;5263353;28;20432;-52
2022/10/15 12:03:41;;;;;;;3.87;3.63;;;20.90;99.90;;;;;;5252746;28;20458;-53
2022/10/15 12:06:15;;;;;;;4.00;3.70;;;20.90;99.90;;;;;;5257746;28;20500;-53
2022/10/15 12:08:48;;;;;;;4.23;4.00;;;20.80;99.90;;;;;;5237362;28;20466;-52
2022/10/15 12:11:48;;;;;;;3.37;3.07;;;20.70;99.90;;;;;;5243104;28;20463;-54
2022/10/15 12:14:19;;;;;;;4.00;3.43;;;20.70;99.90;;;;;;5256199;28;20438;-54
2022/10/15 12:17:22;;;;;;;3.77;3.43;;;20.70;99.90;;;;;;5261282;28;20451;-52
2022/10/15 12:20:06;;;;;;;4.17;3.87;;;20.50;99.90;;;;;;5177846;28;20194;-53
2022/10/15 12:22:57;;;;;;;4.13;3.73;;;20.50;99.90;;;;;;5258859;28;20439;-53
2022/10/15 12:25:33;;;;;;;3.50;3.30;;;20.60;99.90;;;;;;5269167;28;20512;-53
2022/10/15 12:28:30;;;;;;;3.63;3.30;;;20.50;99.90;;;;;;5243784;28;20481;-53
2022/10/15 12:31:03;;;;;;;3.27;3.17;;;20.50;99.90;;;;;;5259614;28;20502;-53
2022/10/15 12:33:38;;;;;;;11.57;3.93;;;20.50;99.90;;;;;;5266430;28;20465;-52
2022/10/15 12:36:17;;;;;;;3.73;3.53;;;20.60;99.90;;;;;;5265394;28;21026;-54
2022/10/15 12:39:37;;;;;;;7.00;3.03;;;20.50;99.90;;;;;;5257427;28;20458;-52
2022/10/15 12:42:38;;;;;;;4.47;2.80;;;20.40;99.90;;;;;;5250427;28;20549;-53
2022/10/15 12:45:21;;;;;;;4.97;3.80;;;20.60;99.90;;;;;;5238139;28;20503;-55
2022/10/15 12:47:54;;;;;;;4.53;4.13;;;20.60;99.90;;;;;;5276061;28;20985;-53
2022/10/15 12:50:27;;;;;;;3.47;3.27;;;20.40;99.90;;;;;;5253857;28;20532;-53
2022/10/15 12:53:27;;;;;;;8.87;3.60;;;20.20;99.90;;;;;;5253812;28;20496;-53
2022/10/15 12:56:14;;;;;;;6.83;3.23;;;20.10;99.90;;;;;;5260794;28;20447;-54
2022/10/15 12:58:48;;;;;;;4.33;3.00;;;20.20;99.90;;;;;;5263124;28;20522;-52
2022/10/15 13:01:19;;;;;;;3.00;2.87;;;20.10;99.90;;;;;;5242078;28;20438;-52
2022/10/15 13:03:49;;;;;;;10.60;3.80;;;20.10;99.90;;;;;;5261189;28;20432;-54
2022/10/15 13:06:20;;;;;;;2.27;2.20;;;20.20;99.90;;;;;;5271230;28;20641;-53
2022/10/15 13:08:53;;;;;;;3.43;2.97;;;20.40;99.90;;;;;;5265375;28;20206;-54
2022/10/15 13:11:28;;;;;;;5.73;4.10;;;20.20;99.90;;;;;;5268084;28;20536;-54
2022/10/15 13:14:11;;;;;;;4.57;3.30;;;20.10;99.90;;;;;;5268445;28;20495;-54
2022/10/15 13:16:44;;;;;;;2.93;2.70;;;20.00;99.90;;;;;;5270847;28;20462;-53
2022/10/15 13:19:30;;;;;;;3.10;3.00;;;19.90;99.90;;;;;;5259368;28;20482;-51
2022/10/15 13:22:04;;;;;;;2.73;2.60;;;19.90;99.90;;;;;;5264950;28;20440;-54